sensor_id;sensor_type;location;lat;lon;timestamp;pressure;altitude;pressure_sealevel;temperature;humidity
12626;BME280;6378;42.684;23.372;2022-09-01T00:01:50;94931.25;;;19.27;100.00
12626;BME280;6378;42.684;23.372;2022-09-01T00:04:20;94922.00;;;19.17;100.00
12626;BME280;6378;42.684;23.372;2022-09-01T00:06:46;94916.56;;;19.14;100.00
12626;BME280;6378;42.684;23.372;2022-09-01T00:09:15;94929.44;;;19.13;100.00
12626;BME280;6378;42.684;23.372;2022-09-01T00:11:43;94931.84;;;19.04;100.00
12626;BME280;6378;42.684;23.372;2022-09-01T00:14:10;94927.63;;;18.96;100.00
12626;BME280;6378;42.684;23.372;2022-09-01T00:16:36;94930.00;;;18.87;100.00
12626;BME280;6378;42.684;23.372;2022-09-01T00:19:01;94923.69;;;18.97;100.00
12626;BME280;6378;42.684;23.372;2022-09-01T00:21:31;94914.63;;;19.14;100.00
12626;BME280;6378;42.684;23.372;2022-09-01T00:23:58;94917.56;;;18.82;100.00
12626;BME280;6378;42.684;23.372;2022-09-01T00:26:24;94898.56;;;18.72;100.00
12626;BME280;6378;42.684;23.372;2022-09-01T00:28:50;94918.34;;;18.83;100.00
12626;BME280;6378;42.684;23.372;2022-09-01T00:31:16;94925.84;;;18.68;100.00
12626;BME280;6378;42.684;23.372;2022-09-01T00:33:44;94918.56;;;18.51;100.00
12626;BME280;6378;42.684;23.372;2022-09-01T00:36:10;94894.19;;;18.19;100.00
12626;BME280;6378;42.684;23.372;2022-09-01T00:38:36;94913.69;;;18.10;100.00
12626;BME280;6378;42.684;23.372;2022-09-01T00:41:03;94942.06;;;18.20;100.00
12626;BME280;6378;42.684;23.372;2022-09-01T00:46:05;94938.19;;;18.14;100.00
12626;BME280;6378;42.684;23.372;2022-09-01T00:48:31;94942.09;;;18.13;100.00
12626;BME280;6378;42.684;23.372;2022-09-01T00:50:58;94948.28;;;18.13;100.00
12626;BME280;6378;42.684;23.372;2022-09-01T00:53:25;94946.00;;;18.12;100.00
12626;BME280;6378;42.684;23.372;2022-09-01T00:55:50;94948.66;;;18.19;100.00
12626;BME280;6378;42.684;23.372;2022-09-01T00:58:16;94943.66;;;18.07;100.00
12626;BME280;6378;42.684;23.372;2022-09-01T01:00:41;94944.84;;;17.99;100.00
12626;BME280;6378;42.684;23.372;2022-09-01T01:03:10;94946.44;;;17.96;100.00
12626;BME280;6378;42.684;23.372;2022-09-01T01:05:48;94934.44;;;17.72;100.00
12626;BME280;6378;42.684;23.372;2022-09-01T01:08:20;94957.78;;;17.73;100.00
12626;BME280;6378;42.684;23.372;2022-09-01T01:10:51;94952.34;;;17.73;100.00
12626;BME280;6378;42.684;23.372;2022-09-01T01:13:17;94958.94;;;17.65;100.00
12626;BME280;6378;42.684;23.372;2022-09-01T01:15:43;94962.84;;;17.64;100.00
12626;BME280;6378;42.684;23.372;2022-09-01T01:18:13;94958.94;;;17.72;100.00
12626;BME280;6378;42.684;23.372;2022-09-01T01:20:40;94946.13;;;17.62;100.00
12626;BME280;6378;42.684;23.372;2022-09-01T01:23:38;94949.22;;;17.64;100.00
12626;BME280;6378;42.684;23.372;2022-09-01T01:26:06;94949.59;;;17.56;100.00
12626;BME280;6378;42.684;23.372;2022-09-01T01:28:36;94966.34;;;17.58;100.00
12626;BME280;6378;42.684;23.372;2022-09-01T01:31:12;94959.34;;;17.46;100.00
12626;BME280;6378;42.684;23.372;2022-09-01T01:33:46;94963.63;;;17.37;100.00
12626;BME280;6378;42.684;23.372;2022-09-01T01:36:22;94964.41;;;17.37;100.00
12626;BME280;6378;42.684;23.372;2022-09-01T01:38:58;94968.69;;;17.35;100.00
12626;BME280;6378;42.684;23.372;2022-09-01T01:41:26;94971.41;;;17.42;100.00
12626;BME280;6378;42.684;23.372;2022-09-01T01:43:55;94972.56;;;17.41;100.00
12626;BME280;6378;42.684;23.372;2022-09-01T01:46:22;94970.63;;;17.23;100.00
12626;BME280;6378;42.684;23.372;2022-09-01T01:48:50;94971.03;;;17.18;100.00
12626;BME280;6378;42.684;23.372;2022-09-01T01:51:17;94979.16;;;17.25;100.00
12626;BME280;6378;42.684;23.372;2022-09-01T01:53:46;94979.56;;;17.27;100.00
12626;BME280;6378;42.684;23.372;2022-09-01T01:56:12;94991.63;;;17.19;100.00
12626;BME280;6378;42.684;23.372;2022-09-01T01:58:38;94979.19;;;17.22;100.00
12626;BME280;6378;42.684;23.372;2022-09-01T02:01:05;94988.50;;;17.35;100.00
12626;BME280;6378;42.684;23.372;2022-09-01T02:03:33;95001.31;;;17.45;100.00
12626;BME280;6378;42.684;23.372;2022-09-01T02:06:07;94980.31;;;17.35;100.00
12626;BME280;6378;42.684;23.372;2022-09-01T02:08:35;94990.81;;;17.40;100.00
12626;BME280;6378;42.684;23.372;2022-09-01T02:11:02;94984.25;;;17.34;100.00
12626;BME280;6378;42.684;23.372;2022-09-01T02:13:28;94964.00;;;17.21;100.00
12626;BME280;6378;42.684;23.372;2022-09-01T02:16:02;94988.50;;;17.42;100.00
12626;BME280;6378;42.684;23.372;2022-09-01T02:18:32;94998.22;;;17.43;100.00
12626;BME280;6378;42.684;23.372;2022-09-01T02:21:02;94994.34;;;17.48;100.00
12626;BME280;6378;42.684;23.372;2022-09-01T02:23:28;94989.28;;;17.46;100.00
12626;BME280;6378;42.684;23.372;2022-09-01T02:25:57;94991.22;;;17.42;100.00
12626;BME280;6378;42.684;23.372;2022-09-01T02:28:27;94986.56;;;17.43;100.00
12626;BME280;6378;42.684;23.372;2022-09-01T02:30:56;94990.44;;;17.45;100.00
12626;BME280;6378;42.684;23.372;2022-09-01T02:33:28;94980.34;;;17.49;100.00
12626;BME280;6378;42.684;23.372;2022-09-01T02:35:59;94989.66;;;17.45;100.00
12626;BME280;6378;42.684;23.372;2022-09-01T02:38:26;94985.00;;;17.42;100.00
12626;BME280;6378;42.684;23.372;2022-09-01T02:40:55;94979.56;;;17.49;100.00
12626;BME280;6378;42.684;23.372;2022-09-01T02:43:21;94965.97;;;17.42;100.00
12626;BME280;6378;42.684;23.372;2022-09-01T02:45:49;94976.09;;;17.59;100.00
12626;BME280;6378;42.684;23.372;2022-09-01T02:48:20;94967.91;;;17.62;100.00
12626;BME280;6378;42.684;23.372;2022-09-01T02:50:49;94962.47;;;17.59;100.00
12626;BME280;6378;42.684;23.372;2022-09-01T02:53:15;94962.44;;;17.45;100.00
12626;BME280;6378;42.684;23.372;2022-09-01T02:55:41;94967.13;;;17.37;100.00
12626;BME280;6378;42.684;23.372;2022-09-01T02:58:07;94964.78;;;17.43;100.00
12626;BME280;6378;42.684;23.372;2022-09-01T03:00:41;94961.66;;;17.41;100.00
12626;BME280;6378;42.684;23.372;2022-09-01T03:03:08;94956.63;;;17.32;100.00
12626;BME280;6378;42.684;23.372;2022-09-01T03:05:37;94962.47;;;17.20;100.00
12626;BME280;6378;42.684;23.372;2022-09-01T03:08:08;94957.81;;;17.17;100.00
12626;BME280;6378;42.684;23.372;2022-09-01T03:10:36;94956.25;;;17.23;100.00
12626;BME280;6378;42.684;23.372;2022-09-01T03:13:11;94960.13;;;17.25;100.00
12626;BME280;6378;42.684;23.372;2022-09-01T03:15:37;94966.75;;;17.28;100.00
12626;BME280;6378;42.684;23.372;2022-09-01T03:18:05;94964.78;;;17.32;100.00
12626;BME280;6378;42.684;23.372;2022-09-01T03:20:32;94954.69;;;17.25;100.00
12626;BME280;6378;42.684;23.372;2022-09-01T03:23:00;94959.38;;;17.28;100.00
12626;BME280;6378;42.684;23.372;2022-09-01T03:25:26;94942.66;;;17.19;100.00
12626;BME280;6378;42.684;23.372;2022-09-01T03:27:55;94943.06;;;17.14;100.00
12626;BME280;6378;42.684;23.372;2022-09-01T03:30:27;94963.25;;;17.17;100.00
12626;BME280;6378;42.684;23.372;2022-09-01T03:32:57;94955.47;;;17.05;100.00
12626;BME280;6378;42.684;23.372;2022-09-01T03:35:24;94963.63;;;17.01;100.00
12626;BME280;6378;42.684;23.372;2022-09-01T03:37:53;94964.41;;;16.98;100.00
12626;BME280;6378;42.684;23.372;2022-09-01T03:40:22;94969.47;;;17.00;100.00
12626;BME280;6378;42.684;23.372;2022-09-01T03:42:48;94967.91;;;16.99;100.00
12626;BME280;6378;42.684;23.372;2022-09-01T03:45:13;94971.41;;;16.96;100.00
12626;BME280;6378;42.684;23.372;2022-09-01T03:47:41;94977.22;;;16.94;100.00
12626;BME280;6378;42.684;23.372;2022-09-01T03:50:10;94969.44;;;16.85;100.00
12626;BME280;6378;42.684;23.372;2022-09-01T03:52:52;94972.16;;;16.85;100.00
12626;BME280;6378;42.684;23.372;2022-09-01T03:55:21;94971.00;;;16.86;100.00
12626;BME280;6378;42.684;23.372;2022-09-01T03:57:52;94953.13;;;16.78;100.00
12626;BME280;6378;42.684;23.372;2022-09-01T04:00:20;94964.78;;;16.93;100.00
12626;BME280;6378;42.684;23.372;2022-09-01T04:02:52;94969.47;;;17.03;100.00
12626;BME280;6378;42.684;23.372;2022-09-01T04:05:22;94974.91;;;17.00;100.00
12626;BME280;6378;42.684;23.372;2022-09-01T04:07:53;94959.34;;;16.89;100.00
12626;BME280;6378;42.684;23.372;2022-09-01T04:10:19;94979.16;;;16.97;100.00
12626;BME280;6378;42.684;23.372;2022-09-01T04:12:47;94980.31;;;16.93;100.00
12626;BME280;6378;42.684;23.372;2022-09-01T04:15:14;94974.50;;;16.91;100.00
12626;BME280;6378;42.684;23.372;2022-09-01T04:17:44;94979.16;;;16.76;100.00
12626;BME280;6378;42.684;23.372;2022-09-01T04:20:28;94974.78;;;16.50;100.00
12626;BME280;6378;42.684;23.372;2022-09-01T04:22:54;94979.44;;;16.50;100.00
12626;BME280;6378;42.684;23.372;2022-09-01T04:25:20;94982.56;;;16.52;100.00
12626;BME280;6378;42.684;23.372;2022-09-01T04:27:50;94989.22;;;16.61;100.00
12626;BME280;6378;42.684;23.372;2022-09-01T04:30:20;94981.06;;;16.61;100.00
12626;BME280;6378;42.684;23.372;2022-09-01T04:32:53;94980.28;;;16.71;100.00
12626;BME280;6378;42.684;23.372;2022-09-01T04:35:21;94977.19;;;16.69;100.00
12626;BME280;6378;42.684;23.372;2022-09-01T04:38:00;94983.03;;;16.85;100.00
12626;BME280;6378;42.684;23.372;2022-09-01T04:40:26;94976.81;;;16.92;100.00
12626;BME280;6378;42.684;23.372;2022-09-01T04:42:51;94983.81;;;17.11;100.00
12626;BME280;6378;42.684;23.372;2022-09-01T04:45:16;94985.78;;;17.24;100.00
12626;BME280;6378;42.684;23.372;2022-09-01T04:47:44;94984.63;;;17.29;100.00
12626;BME280;6378;42.684;23.372;2022-09-01T04:50:11;94978.03;;;17.44;100.00
12626;BME280;6378;42.684;23.372;2022-09-01T04:52:41;94976.81;;;17.45;100.00
12626;BME280;6378;42.684;23.372;2022-09-01T04:55:09;94975.28;;;17.37;100.00
12626;BME280;6378;42.684;23.372;2022-09-01T04:57:42;94977.63;;;17.31;100.00
12626;BME280;6378;42.684;23.372;2022-09-01T05:00:13;94985.00;;;17.38;100.00
12626;BME280;6378;42.684;23.372;2022-09-01T05:02:48;94976.06;;;17.34;100.00
12626;BME280;6378;42.684;23.372;2022-09-01T05:05:13;94967.13;;;17.12;100.00
12626;BME280;6378;42.684;23.372;2022-09-01T05:07:39;94981.09;;;17.11;100.00
12626;BME280;6378;42.684;23.372;2022-09-01T05:10:05;94993.16;;;17.20;100.00
12626;BME280;6378;42.684;23.372;2022-09-01T05:12:31;94987.72;;;17.17;100.00
12626;BME280;6378;42.684;23.372;2022-09-01T05:14:56;94987.34;;;17.22;100.00
12626;BME280;6378;42.684;23.372;2022-09-01T05:17:22;94962.47;;;17.02;100.00
12626;BME280;6378;42.684;23.372;2022-09-01T05:19:50;94983.06;;;17.28;100.00
12626;BME280;6378;42.684;23.372;2022-09-01T05:22:15;94986.56;;;17.28;100.00
12626;BME280;6378;42.684;23.372;2022-09-01T05:24:42;94969.84;;;17.30;100.00
12626;BME280;6378;42.684;23.372;2022-09-01T05:27:08;94957.41;;;17.08;100.00
12626;BME280;6378;42.684;23.372;2022-09-01T05:29:38;94982.69;;;17.22;100.00
12626;BME280;6378;42.684;23.372;2022-09-01T05:32:06;94988.50;;;17.28;100.00
12626;BME280;6378;42.684;23.372;2022-09-01T05:34:34;94956.25;;;17.19;100.00
12626;BME280;6378;42.684;23.372;2022-09-01T05:37:04;94986.56;;;17.46;100.00
12626;BME280;6378;42.684;23.372;2022-09-01T05:39:31;94968.66;;;17.52;100.00
12626;BME280;6378;42.684;23.372;2022-09-01T05:41:59;94975.28;;;17.65;100.00
12626;BME280;6378;42.684;23.372;2022-09-01T05:44:25;94963.97;;;17.85;100.00
12626;BME280;6378;42.684;23.372;2022-09-01T05:46:51;94962.38;;;17.98;100.00
12626;BME280;6378;42.684;23.372;2022-09-01T05:49:17;94973.97;;;18.19;100.00
12626;BME280;6378;42.684;23.372;2022-09-01T05:51:49;94968.56;;;18.05;100.00
12626;BME280;6378;42.684;23.372;2022-09-01T05:54:17;94976.34;;;18.03;100.00
12626;BME280;6378;42.684;23.372;2022-09-01T05:56:43;94974.78;;;18.13;100.00
12626;BME280;6378;42.684;23.372;2022-09-01T05:59:09;94975.56;;;18.06;100.00
12626;BME280;6378;42.684;23.372;2022-09-01T06:01:36;94969.34;;;18.09;100.00
12626;BME280;6378;42.684;23.372;2022-09-01T06:04:07;94971.66;;;18.11;100.00
12626;BME280;6378;42.684;23.372;2022-09-01T06:06:39;94953.19;;;18.50;100.00
12626;BME280;6378;42.684;23.372;2022-09-01T06:09:07;94963.25;;;18.68;100.00
12626;BME280;6378;42.684;23.372;2022-09-01T06:11:33;94938.38;;;18.58;100.00
12626;BME280;6378;42.684;23.372;2022-09-01T06:13:59;94944.22;;;18.57;100.00
12626;BME280;6378;42.684;23.372;2022-09-01T06:16:26;94951.06;;;18.86;100.00
12626;BME280;6378;42.684;23.372;2022-09-01T06:18:54;94956.00;;;19.02;100.00
12626;BME280;6378;42.684;23.372;2022-09-01T06:21:24;94946.28;;;19.01;100.00
12626;BME280;6378;42.684;23.372;2022-09-01T06:23:50;94942.97;;;18.76;100.00
12626;BME280;6378;42.684;23.372;2022-09-01T06:28:48;94946.53;;;18.66;100.00
12626;BME280;6378;42.684;23.372;2022-09-01T06:31:20;94956.38;;;19.08;100.00
12626;BME280;6378;42.684;23.372;2022-09-01T06:33:52;94945.00;;;19.16;100.00
12626;BME280;6378;42.684;23.372;2022-09-01T06:36:21;94950.75;;;18.74;100.00
12626;BME280;6378;42.684;23.372;2022-09-01T06:38:49;94950.97;;;18.97;100.00
12626;BME280;6378;42.684;23.372;2022-09-01T06:41:16;94943.22;;;18.92;100.00
12626;BME280;6378;42.684;23.372;2022-09-01T06:43:46;94929.53;;;18.99;100.00
12626;BME280;6378;42.684;23.372;2022-09-01T06:46:12;94930.13;;;19.21;100.00
12626;BME280;6378;42.684;23.372;2022-09-01T06:48:38;94922.84;;;19.07;100.00
12626;BME280;6378;42.684;23.372;2022-09-01T06:51:16;94942.91;;;19.31;100.00
12626;BME280;6378;42.684;23.372;2022-09-01T06:53:43;94925.44;;;19.69;100.00
12626;BME280;6378;42.684;23.372;2022-09-01T06:56:10;94916.94;;;19.94;100.00
12626;BME280;6378;42.684;23.372;2022-09-01T06:58:39;94919.16;;;20.40;100.00
12626;BME280;6378;42.684;23.372;2022-09-01T07:01:09;94906.91;;;20.79;100.00
12626;BME280;6378;42.684;23.372;2022-09-01T07:03:40;94922.28;;;20.96;100.00
12626;BME280;6378;42.684;23.372;2022-09-01T07:06:06;94907.72;;;20.75;100.00
12626;BME280;6378;42.684;23.372;2022-09-01T07:08:32;94919.66;;;21.12;100.00
12626;BME280;6378;42.684;23.372;2022-09-01T07:11:07;94914.28;;;21.55;100.00
12626;BME280;6378;42.684;23.372;2022-09-01T07:13:40;94917.53;;;21.89;100.00
12626;BME280;6378;42.684;23.372;2022-09-01T07:16:06;94904.38;;;22.24;100.00
12626;BME280;6378;42.684;23.372;2022-09-01T07:18:33;94903.72;;;22.36;100.00
12626;BME280;6378;42.684;23.372;2022-09-01T07:20:59;94884.31;;;22.46;100.00
12626;BME280;6378;42.684;23.372;2022-09-01T07:23:26;94907.72;;;22.71;100.00
12626;BME280;6378;42.684;23.372;2022-09-01T07:25:53;94894.69;;;22.91;100.00
12626;BME280;6378;42.684;23.372;2022-09-01T07:28:21;94893.41;;;23.44;100.00
12626;BME280;6378;42.684;23.372;2022-09-01T07:30:50;94898.03;;;23.63;100.00
12626;BME280;6378;42.684;23.372;2022-09-01T07:33:18;94875.94;;;23.67;100.00
12626;BME280;6378;42.684;23.372;2022-09-01T07:35:48;94889.41;;;24.06;100.00
12626;BME280;6378;42.684;23.372;2022-09-01T07:38:14;94891.66;;;24.24;99.39
12626;BME280;6378;42.684;23.372;2022-09-01T07:40:42;94892.72;;;24.43;97.78
12626;BME280;6378;42.684;23.372;2022-09-01T07:43:18;94889.53;;;24.70;93.13
12626;BME280;6378;42.684;23.372;2022-09-01T07:45:47;94888.78;;;24.94;91.08
12626;BME280;6378;42.684;23.372;2022-09-01T07:48:15;94886.16;;;25.03;87.90
12626;BME280;6378;42.684;23.372;2022-09-01T07:50:46;94883.94;;;24.86;87.13
12626;BME280;6378;42.684;23.372;2022-09-01T07:53:33;94884.69;;;24.74;89.25
12626;BME280;6378;42.684;23.372;2022-09-01T07:56:08;94881.31;;;24.95;87.23
12626;BME280;6378;42.684;23.372;2022-09-01T07:58:35;94867.97;;;24.81;86.95
12626;BME280;6378;42.684;23.372;2022-09-01T08:01:16;94877.78;;;24.82;87.44
12626;BME280;6378;42.684;23.372;2022-09-01T08:03:44;94886.47;;;24.68;87.51
12626;BME280;6378;42.684;23.372;2022-09-01T08:06:13;94876.34;;;25.15;84.17
12626;BME280;6378;42.684;23.372;2022-09-01T08:08:40;94887.34;;;25.75;78.51
12626;BME280;6378;42.684;23.372;2022-09-01T08:11:06;94889.16;;;25.91;77.79
12626;BME280;6378;42.684;23.372;2022-09-01T08:13:34;94889.13;;;25.69;76.96
12626;BME280;6378;42.684;23.372;2022-09-01T08:16:03;94884.63;;;25.50;78.75
12626;BME280;6378;42.684;23.372;2022-09-01T08:18:28;94880.31;;;25.61;79.91
12626;BME280;6378;42.684;23.372;2022-09-01T08:20:54;94841.22;;;25.07;79.07
12626;BME280;6378;42.684;23.372;2022-09-01T08:23:19;94868.03;;;25.28;79.19
12626;BME280;6378;42.684;23.372;2022-09-01T08:25:48;94877.53;;;25.14;80.12
12626;BME280;6378;42.684;23.372;2022-09-01T08:28:14;94874.75;;;25.39;77.65
12626;BME280;6378;42.684;23.372;2022-09-01T08:30:41;94870.63;;;25.57;76.74
12626;BME280;6378;42.684;23.372;2022-09-01T08:33:07;94870.31;;;25.55;77.58
12626;BME280;6378;42.684;23.372;2022-09-01T08:35:37;94873.72;;;25.93;74.36
12626;BME280;6378;42.684;23.372;2022-09-01T08:38:03;94871.38;;;25.70;74.29
12626;BME280;6378;42.684;23.372;2022-09-01T08:40:28;94866.50;;;25.74;75.26
12626;BME280;6378;42.684;23.372;2022-09-01T08:45:54;94864.78;;;25.89;71.47
12626;BME280;6378;42.684;23.372;2022-09-01T08:48:42;94862.53;;;25.97;72.20
12626;BME280;6378;42.684;23.372;2022-09-01T08:51:26;94866.78;;;26.32;69.12
12626;BME280;6378;42.684;23.372;2022-09-01T08:56:28;94860.50;;;25.88;68.45
12626;BME280;6378;42.684;23.372;2022-09-01T08:58:53;94833.03;;;26.06;67.53
12626;BME280;6378;42.684;23.372;2022-09-01T09:01:30;94849.44;;;26.53;65.32
12626;BME280;6378;42.684;23.372;2022-09-01T09:04:19;94850.94;;;26.54;66.23
12626;BME280;6378;42.684;23.372;2022-09-01T09:09:50;94833.97;;;26.34;63.19
12626;BME280;6378;42.684;23.372;2022-09-01T09:12:26;94836.03;;;26.43;63.20
12626;BME280;6378;42.684;23.372;2022-09-01T09:15:13;94834.31;;;26.67;63.08
12626;BME280;6378;42.684;23.372;2022-09-01T09:17:46;94830.44;;;26.95;61.30
12626;BME280;6378;42.684;23.372;2022-09-01T09:20:13;94834.97;;;27.29;59.70
12626;BME280;6378;42.684;23.372;2022-09-01T09:22:40;94834.53;;;27.40;57.47
12626;BME280;6378;42.684;23.372;2022-09-01T09:25:09;94827.00;;;27.40;57.97
12626;BME280;6378;42.684;23.372;2022-09-01T09:27:41;94825.06;;;26.92;59.09
12626;BME280;6378;42.684;23.372;2022-09-01T09:30:08;94823.13;;;27.20;59.37
12626;BME280;6378;42.684;23.372;2022-09-01T09:32:55;94811.47;;;27.15;59.61
12626;BME280;6378;42.684;23.372;2022-09-01T09:41:14;94815.28;;;27.18;55.76
12626;BME280;6378;42.684;23.372;2022-09-01T09:52:23;94779.56;;;27.69;51.99
12626;BME280;6378;42.684;23.372;2022-09-01T09:57:47;94801.50;;;28.18;50.69
12626;BME280;6378;42.684;23.372;2022-09-01T10:02:51;94800.25;;;27.10;52.94
12626;BME280;6378;42.684;23.372;2022-09-01T10:07:53;94797.19;;;26.68;52.51
12626;BME280;6378;42.684;23.372;2022-09-01T10:10:43;94799.72;;;26.93;52.13
12626;BME280;6378;42.684;23.372;2022-09-01T10:13:46;94789.69;;;27.27;50.29
12626;BME280;6378;42.684;23.372;2022-09-01T10:20:33;94786.16;;;27.99;49.45
12626;BME280;6378;42.684;23.372;2022-09-01T10:30:12;94778.94;;;27.83;49.30
12626;BME280;6378;42.684;23.372;2022-09-01T10:33:02;94771.91;;;27.55;49.86
12626;BME280;6378;42.684;23.372;2022-09-01T10:35:38;94775.88;;;27.54;50.06
12626;BME280;6378;42.684;23.372;2022-09-01T10:38:27;94776.34;;;27.62;49.96
12626;BME280;6378;42.684;23.372;2022-09-01T10:40:58;94772.00;;;27.33;50.08
12626;BME280;6378;42.684;23.372;2022-09-01T10:43:51;94776.16;;;27.20;51.21
12626;BME280;6378;42.684;23.372;2022-09-01T10:51:53;94769.09;;;26.69;53.33
12626;BME280;6378;42.684;23.372;2022-09-01T10:57:07;94768.22;;;26.33;55.47
12626;BME280;6378;42.684;23.372;2022-09-01T10:59:34;94765.34;;;26.45;55.11
12626;BME280;6378;42.684;23.372;2022-09-01T11:02:08;94763.06;;;26.44;56.47
12626;BME280;6378;42.684;23.372;2022-09-01T11:15:41;94747.91;;;27.06;55.45
12626;BME280;6378;42.684;23.372;2022-09-01T11:18:30;94745.47;;;27.27;54.67
12626;BME280;6378;42.684;23.372;2022-09-01T11:21:14;94748.34;;;27.32;54.11
12626;BME280;6378;42.684;23.372;2022-09-01T11:23:42;94739.16;;;27.44;56.41
12626;BME280;6378;42.684;23.372;2022-09-01T11:28:59;94743.00;;;27.38;51.32
12626;BME280;6378;42.684;23.372;2022-09-01T11:31:30;94738.06;;;27.14;51.11
12626;BME280;6378;42.684;23.372;2022-09-01T11:41:46;94712.69;;;27.89;46.93
12626;BME280;6378;42.684;23.372;2022-09-01T11:46:51;94699.53;;;27.47;50.67
12626;BME280;6378;42.684;23.372;2022-09-01T11:51:51;94681.25;;;27.59;50.69
12626;BME280;6378;42.684;23.372;2022-09-01T11:54:17;94681.19;;;27.86;50.61
12626;BME280;6378;42.684;23.372;2022-09-01T11:56:42;94688.66;;;28.13;49.31
12626;BME280;6378;42.684;23.372;2022-09-01T11:59:08;94676.28;;;28.56;49.17
12626;BME280;6378;42.684;23.372;2022-09-01T12:01:36;94687.72;;;28.82;48.36
12626;BME280;6378;42.684;23.372;2022-09-01T12:06:59;94680.53;;;29.14;48.13
12626;BME280;6378;42.684;23.372;2022-09-01T12:09:45;94681.81;;;29.51;47.68
12626;BME280;6378;42.684;23.372;2022-09-01T12:12:47;94686.75;;;29.62;47.29
12626;BME280;6378;42.684;23.372;2022-09-01T12:15:17;94682.84;;;29.68;47.09
12626;BME280;6378;42.684;23.372;2022-09-01T12:17:43;94681.03;;;29.65;47.22
12626;BME280;6378;42.684;23.372;2022-09-01T12:20:22;94677.03;;;28.90;49.45
12626;BME280;6378;42.684;23.372;2022-09-01T12:22:49;94682.59;;;28.33;51.38
12626;BME280;6378;42.684;23.372;2022-09-01T12:25:21;94677.72;;;28.19;51.90
12626;BME280;6378;42.684;23.372;2022-09-01T12:27:47;94667.63;;;27.97;51.98
12626;BME280;6378;42.684;23.372;2022-09-01T12:30:13;94669.66;;;27.88;53.02
12626;BME280;6378;42.684;23.372;2022-09-01T12:32:39;94667.25;;;27.63;54.28
12626;BME280;6378;42.684;23.372;2022-09-01T12:35:22;94661.56;;;27.66;53.75
12626;BME280;6378;42.684;23.372;2022-09-01T12:37:49;94664.19;;;27.70;54.02
12626;BME280;6378;42.684;23.372;2022-09-01T12:40:25;94669.06;;;27.84;52.66
12626;BME280;6378;42.684;23.372;2022-09-01T12:42:55;94672.53;;;28.12;52.44
12626;BME280;6378;42.684;23.372;2022-09-01T12:45:40;94666.97;;;28.12;52.44
12626;BME280;6378;42.684;23.372;2022-09-01T12:48:06;94662.34;;;28.18;51.83
12626;BME280;6378;42.684;23.372;2022-09-01T12:50:34;94646.00;;;28.29;52.04
12626;BME280;6378;42.684;23.372;2022-09-01T12:53:01;94669.34;;;28.37;53.01
12626;BME280;6378;42.684;23.372;2022-09-01T12:55:31;94667.69;;;28.54;52.41
12626;BME280;6378;42.684;23.372;2022-09-01T12:57:59;94675.31;;;28.68;52.69
12626;BME280;6378;42.684;23.372;2022-09-01T13:00:27;94657.88;;;28.77;52.11
12626;BME280;6378;42.684;23.372;2022-09-01T13:05:32;94661.22;;;29.05;50.60
12626;BME280;6378;42.684;23.372;2022-09-01T13:08:04;94664.28;;;29.07;50.53
12626;BME280;6378;42.684;23.372;2022-09-01T13:10:36;94648.59;;;29.04;49.66
12626;BME280;6378;42.684;23.372;2022-09-01T13:13:03;94663.56;;;29.21;49.33
12626;BME280;6378;42.684;23.372;2022-09-01T13:15:29;94649.00;;;29.11;49.84
12626;BME280;6378;42.684;23.372;2022-09-01T13:17:56;94650.25;;;29.10;49.45
12626;BME280;6378;42.684;23.372;2022-09-01T13:20:21;94648.94;;;28.82;50.26
12626;BME280;6378;42.684;23.372;2022-09-01T13:22:47;94646.72;;;28.62;50.54
12626;BME280;6378;42.684;23.372;2022-09-01T13:25:14;94635.41;;;28.27;50.81
12626;BME280;6378;42.684;23.372;2022-09-01T13:27:42;94632.50;;;28.22;52.29
12626;BME280;6378;42.684;23.372;2022-09-01T13:30:17;94642.50;;;28.10;51.24
12626;BME280;6378;42.684;23.372;2022-09-01T13:32:44;94645.59;;;28.45;50.39
12626;BME280;6378;42.684;23.372;2022-09-01T13:35:11;94639.41;;;28.50;52.05
12626;BME280;6378;42.684;23.372;2022-09-01T13:37:36;94642.75;;;28.54;51.22
12626;BME280;6378;42.684;23.372;2022-09-01T13:40:04;94635.72;;;28.77;51.07
12626;BME280;6378;42.684;23.372;2022-09-01T13:42:32;94645.19;;;28.85;51.10
12626;BME280;6378;42.684;23.372;2022-09-01T13:44:57;94646.28;;;28.88;49.65
12626;BME280;6378;42.684;23.372;2022-09-01T13:47:23;94642.41;;;28.61;47.72
12626;BME280;6378;42.684;23.372;2022-09-01T13:49:49;94644.16;;;28.50;47.40
12626;BME280;6378;42.684;23.372;2022-09-01T13:52:15;94650.84;;;28.43;48.81
12626;BME280;6378;42.684;23.372;2022-09-01T13:54:40;94649.94;;;28.37;50.87
12626;BME280;6378;42.684;23.372;2022-09-01T13:57:08;94628.06;;;28.15;53.58
12626;BME280;6378;42.684;23.372;2022-09-01T13:59:33;94644.22;;;28.17;55.31
12626;BME280;6378;42.684;23.372;2022-09-01T14:01:59;94634.97;;;28.20;55.44
12626;BME280;6378;42.684;23.372;2022-09-01T14:04:25;94625.19;;;28.00;56.62
12626;BME280;6378;42.684;23.372;2022-09-01T14:06:51;94637.44;;;28.18;57.55
12626;BME280;6378;42.684;23.372;2022-09-01T14:09:16;94646.72;;;27.96;58.07
12626;BME280;6378;42.684;23.372;2022-09-01T14:11:42;94647.09;;;27.80;60.33
12626;BME280;6378;42.684;23.372;2022-09-01T14:14:07;94632.38;;;27.74;61.15
12626;BME280;6378;42.684;23.372;2022-09-01T14:16:33;94651.28;;;27.67;62.14
12626;BME280;6378;42.684;23.372;2022-09-01T14:18:58;94633.66;;;27.46;62.79
12626;BME280;6378;42.684;23.372;2022-09-01T14:21:25;94645.34;;;27.50;62.98
12626;BME280;6378;42.684;23.372;2022-09-01T14:23:51;94650.25;;;27.28;64.24
12626;BME280;6378;42.684;23.372;2022-09-01T14:26:16;94645.34;;;27.13;64.91
12626;BME280;6378;42.684;23.372;2022-09-01T14:28:43;94623.38;;;26.73;66.17
12626;BME280;6378;42.684;23.372;2022-09-01T14:31:11;94646.28;;;27.01;66.70
12626;BME280;6378;42.684;23.372;2022-09-01T14:33:38;94652.09;;;26.76;68.73
12626;BME280;6378;42.684;23.372;2022-09-01T14:36:05;94637.31;;;26.34;71.31